sensor_id;sensor_type;location;lat;lon;timestamp;P1;durP1;ratioP1;P2;durP2;ratioP2
13415;SDS011;6779;50.150;8.680;2023-05-01T00:00:20;6.57;;;4.30;;
13415;SDS011;6779;50.150;8.680;2023-05-01T00:02:46;4.13;;;3.73;;
13415;SDS011;6779;50.150;8.680;2023-05-01T00:05:11;7.33;;;4.20;;
13415;SDS011;6779;50.150;8.680;2023-05-01T00:07:36;5.17;;;4.43;;
13415;SDS011;6779;50.150;8.680;2023-05-01T00:10:03;6.47;;;4.00;;
13415;SDS011;6779;50.150;8.680;2023-05-01T00:12:28;6.47;;;4.27;;
13415;SDS011;6779;50.150;8.680;2023-05-01T00:14:53;4.37;;;3.87;;
13415;SDS011;6779;50.150;8.680;2023-05-01T00:17:19;7.37;;;4.20;;
13415;SDS011;6779;50.150;8.680;2023-05-01T00:19:49;4.77;;;3.93;;
13415;SDS011;6779;50.150;8.680;2023-05-01T00:22:15;7.57;;;4.50;;
13415;SDS011;6779;50.150;8.680;2023-05-01T00:24:41;7.10;;;3.93;;
13415;SDS011;6779;50.150;8.680;2023-05-01T00:27:06;5.17;;;4.13;;
13415;SDS011;6779;50.150;8.680;2023-05-01T00:29:31;8.40;;;4.07;;
13415;SDS011;6779;50.150;8.680;2023-05-01T00:31:57;4.77;;;3.90;;
13415;SDS011;6779;50.150;8.680;2023-05-01T00:34:22;7.50;;;4.43;;
13415;SDS011;6779;50.150;8.680;2023-05-01T00:36:49;7.67;;;4.47;;
13415;SDS011;6779;50.150;8.680;2023-05-01T00:39:14;6.10;;;4.30;;
13415;SDS011;6779;50.150;8.680;2023-05-01T00:41:40;4.07;;;3.67;;
13415;SDS011;6779;50.150;8.680;2023-05-01T00:44:05;5.20;;;4.63;;
13415;SDS011;6779;50.150;8.680;2023-05-01T00:46:31;8.87;;;4.83;;
13415;SDS011;6779;50.150;8.680;2023-05-01T00:48:58;7.33;;;4.77;;
13415;SDS011;6779;50.150;8.680;2023-05-01T00:51:23;5.33;;;4.53;;
13415;SDS011;6779;50.150;8.680;2023-05-01T00:53:51;7.97;;;4.63;;
13415;SDS011;6779;50.150;8.680;2023-05-01T00:56:16;5.30;;;4.50;;
13415;SDS011;6779;50.150;8.680;2023-05-01T00:58:42;6.23;;;4.60;;
13415;SDS011;6779;50.150;8.680;2023-05-01T01:01:10;7.30;;;5.13;;
13415;SDS011;6779;50.150;8.680;2023-05-01T01:03:36;6.47;;;4.97;;
13415;SDS011;6779;50.150;8.680;2023-05-01T01:06:14;5.80;;;4.53;;
13415;SDS011;6779;50.150;8.680;2023-05-01T01:08:48;6.53;;;5.03;;
13415;SDS011;6779;50.150;8.680;2023-05-01T01:11:19;7.27;;;5.27;;
13415;SDS011;6779;50.150;8.680;2023-05-01T01:13:57;5.23;;;4.60;;
13415;SDS011;6779;50.150;8.680;2023-05-01T01:16:27;5.83;;;4.80;;
13415;SDS011;6779;50.150;8.680;2023-05-01T01:21:54;6.53;;;4.83;;
13415;SDS011;6779;50.150;8.680;2023-05-01T01:29:50;5.20;;;4.70;;
13415;SDS011;6779;50.150;8.680;2023-05-01T01:35:23;5.30;;;4.80;;
13415;SDS011;6779;50.150;8.680;2023-05-01T01:37:56;9.10;;;5.40;;
13415;SDS011;6779;50.150;8.680;2023-05-01T01:40:31;8.10;;;5.43;;
13415;SDS011;6779;50.150;8.680;2023-05-01T01:43:02;7.57;;;5.67;;
13415;SDS011;6779;50.150;8.680;2023-05-01T01:45:39;7.57;;;5.50;;
13415;SDS011;6779;50.150;8.680;2023-05-01T01:48:05;5.33;;;4.73;;
13415;SDS011;6779;50.150;8.680;2023-05-01T01:50:35;6.57;;;5.87;;
13415;SDS011;6779;50.150;8.680;2023-05-01T01:53:01;6.37;;;5.50;;
13415;SDS011;6779;50.150;8.680;2023-05-01T01:55:30;9.10;;;5.83;;
13415;SDS011;6779;50.150;8.680;2023-05-01T01:57:56;7.20;;;5.43;;
13415;SDS011;6779;50.150;8.680;2023-05-01T02:00:23;7.43;;;5.73;;
13415;SDS011;6779;50.150;8.680;2023-05-01T02:02:48;7.47;;;5.93;;
13415;SDS011;6779;50.150;8.680;2023-05-01T02:05:15;7.53;;;5.50;;
13415;SDS011;6779;50.150;8.680;2023-05-01T02:07:42;6.90;;;5.87;;
13415;SDS011;6779;50.150;8.680;2023-05-01T02:10:10;6.23;;;5.30;;
13415;SDS011;6779;50.150;8.680;2023-05-01T02:12:37;7.60;;;5.50;;
13415;SDS011;6779;50.150;8.680;2023-05-01T02:15:04;6.33;;;5.53;;
13415;SDS011;6779;50.150;8.680;2023-05-01T02:17:30;6.97;;;5.07;;
13415;SDS011;6779;50.150;8.680;2023-05-01T02:19:56;7.33;;;5.77;;
13415;SDS011;6779;50.150;8.680;2023-05-01T02:22:22;9.97;;;5.63;;
13415;SDS011;6779;50.150;8.680;2023-05-01T02:24:49;6.47;;;5.60;;
13415;SDS011;6779;50.150;8.680;2023-05-01T02:27:19;5.97;;;5.47;;
13415;SDS011;6779;50.150;8.680;2023-05-01T02:29:45;6.07;;;5.43;;
13415;SDS011;6779;50.150;8.680;2023-05-01T02:32:11;6.83;;;5.73;;
13415;SDS011;6779;50.150;8.680;2023-05-01T02:34:36;8.30;;;6.37;;
13415;SDS011;6779;50.150;8.680;2023-05-01T02:37:03;5.80;;;5.30;;
13415;SDS011;6779;50.150;8.680;2023-05-01T02:39:28;8.30;;;5.70;;
13415;SDS011;6779;50.150;8.680;2023-05-01T02:41:54;5.83;;;5.23;;
13415;SDS011;6779;50.150;8.680;2023-05-01T02:44:22;6.90;;;6.20;;
13415;SDS011;6779;50.150;8.680;2023-05-01T02:46:48;6.77;;;5.83;;
13415;SDS011;6779;50.150;8.680;2023-05-01T02:49:14;6.53;;;5.60;;
13415;SDS011;6779;50.150;8.680;2023-05-01T02:51:40;6.17;;;5.57;;
13415;SDS011;6779;50.150;8.680;2023-05-01T02:54:06;6.53;;;5.73;;
13415;SDS011;6779;50.150;8.680;2023-05-01T02:56:32;9.60;;;5.93;;
13415;SDS011;6779;50.150;8.680;2023-05-01T02:58:57;6.43;;;5.60;;
13415;SDS011;6779;50.150;8.680;2023-05-01T03:01:22;8.13;;;6.10;;
13415;SDS011;6779;50.150;8.680;2023-05-01T03:03:48;6.13;;;5.53;;
13415;SDS011;6779;50.150;8.680;2023-05-01T03:06:13;7.07;;;5.40;;
13415;SDS011;6779;50.150;8.680;2023-05-01T03:08:39;8.97;;;6.53;;
13415;SDS011;6779;50.150;8.680;2023-05-01T03:11:07;9.10;;;6.33;;
13415;SDS011;6779;50.150;8.680;2023-05-01T03:13:33;7.97;;;6.27;;
13415;SDS011;6779;50.150;8.680;2023-05-01T03:15:59;10.27;;;6.00;;
13415;SDS011;6779;50.150;8.680;2023-05-01T03:18:24;6.17;;;5.57;;
13415;SDS011;6779;50.150;8.680;2023-05-01T03:20:53;6.13;;;5.53;;
13415;SDS011;6779;50.150;8.680;2023-05-01T03:23:18;6.73;;;5.67;;
13415;SDS011;6779;50.150;8.680;2023-05-01T03:25:44;9.73;;;6.23;;
13415;SDS011;6779;50.150;8.680;2023-05-01T03:28:09;6.53;;;5.90;;
13415;SDS011;6779;50.150;8.680;2023-05-01T03:30:35;7.60;;;6.27;;
13415;SDS011;6779;50.150;8.680;2023-05-01T03:33:00;8.07;;;5.73;;
13415;SDS011;6779;50.150;8.680;2023-05-01T03:35:25;8.23;;;6.17;;
13415;SDS011;6779;50.150;8.680;2023-05-01T03:37:51;10.13;;;6.80;;
13415;SDS011;6779;50.150;8.680;2023-05-01T03:40:16;6.80;;;6.07;;
13415;SDS011;6779;50.150;8.680;2023-05-01T03:42:42;6.13;;;5.53;;
13415;SDS011;6779;50.150;8.680;2023-05-01T03:45:08;8.33;;;6.17;;
13415;SDS011;6779;50.150;8.680;2023-05-01T03:47:33;8.90;;;5.97;;
13415;SDS011;6779;50.150;8.680;2023-05-01T03:49:59;6.93;;;5.60;;
13415;SDS011;6779;50.150;8.680;2023-05-01T03:52:24;8.83;;;5.77;;
13415;SDS011;6779;50.150;8.680;2023-05-01T03:54:50;6.33;;;5.63;;
13415;SDS011;6779;50.150;8.680;2023-05-01T03:57:15;6.67;;;5.43;;
13415;SDS011;6779;50.150;8.680;2023-05-01T03:59:40;6.80;;;5.60;;
13415;SDS011;6779;50.150;8.680;2023-05-01T04:02:07;8.23;;;5.80;;
13415;SDS011;6779;50.150;8.680;2023-05-01T04:04:34;8.17;;;5.60;;
13415;SDS011;6779;50.150;8.680;2023-05-01T04:06:59;6.63;;;5.73;;
13415;SDS011;6779;50.150;8.680;2023-05-01T04:09:25;5.80;;;5.23;;
13415;SDS011;6779;50.150;8.680;2023-05-01T04:11:51;6.20;;;5.60;;
13415;SDS011;6779;50.150;8.680;2023-05-01T04:14:16;6.80;;;6.10;;
13415;SDS011;6779;50.150;8.680;2023-05-01T04:16:41;6.47;;;5.80;;
13415;SDS011;6779;50.150;8.680;2023-05-01T04:19:07;9.87;;;6.23;;
13415;SDS011;6779;50.150;8.680;2023-05-01T04:21:32;7.57;;;6.00;;
13415;SDS011;6779;50.150;8.680;2023-05-01T04:23:58;8.63;;;6.40;;
13415;SDS011;6779;50.150;8.680;2023-05-01T04:26:23;7.97;;;6.00;;
13415;SDS011;6779;50.150;8.680;2023-05-01T04:28:49;8.30;;;5.60;;
13415;SDS011;6779;50.150;8.680;2023-05-01T04:31:14;5.80;;;5.27;;
13415;SDS011;6779;50.150;8.680;2023-05-01T04:33:40;9.80;;;6.13;;
13415;SDS011;6779;50.150;8.680;2023-05-01T04:36:05;7.87;;;5.83;;
13415;SDS011;6779;50.150;8.680;2023-05-01T04:38:31;6.93;;;5.30;;
13415;SDS011;6779;50.150;8.680;2023-05-01T04:40:56;6.17;;;5.47;;
13415;SDS011;6779;50.150;8.680;2023-05-01T04:43:22;6.07;;;5.23;;
13415;SDS011;6779;50.150;8.680;2023-05-01T04:45:47;6.27;;;5.23;;
13415;SDS011;6779;50.150;8.680;2023-05-01T04:48:12;7.27;;;6.10;;
13415;SDS011;6779;50.150;8.680;2023-05-01T04:50:38;7.47;;;5.40;;
13415;SDS011;6779;50.150;8.680;2023-05-01T04:53:03;6.80;;;5.27;;
13415;SDS011;6779;50.150;8.680;2023-05-01T04:55:28;7.23;;;5.73;;
13415;SDS011;6779;50.150;8.680;2023-05-01T04:57:53;7.83;;;5.90;;
13415;SDS011;6779;50.150;8.680;2023-05-01T05:00:21;7.70;;;5.20;;
13415;SDS011;6779;50.150;8.680;2023-05-01T05:02:47;7.37;;;5.00;;
13415;SDS011;6779;50.150;8.680;2023-05-01T05:05:12;7.80;;;6.20;;
13415;SDS011;6779;50.150;8.680;2023-05-01T05:07:37;5.73;;;4.70;;
13415;SDS011;6779;50.150;8.680;2023-05-01T05:10:03;6.97;;;5.50;;
13415;SDS011;6779;50.150;8.680;2023-05-01T05:12:28;8.27;;;5.67;;
13415;SDS011;6779;50.150;8.680;2023-05-01T05:14:54;7.83;;;5.23;;
13415;SDS011;6779;50.150;8.680;2023-05-01T05:17:19;6.90;;;5.50;;
13415;SDS011;6779;50.150;8.680;2023-05-01T05:19:44;5.80;;;5.20;;
13415;SDS011;6779;50.150;8.680;2023-05-01T05:22:09;7.87;;;6.10;;
13415;SDS011;6779;50.150;8.680;2023-05-01T05:24:36;8.60;;;5.30;;
13415;SDS011;6779;50.150;8.680;2023-05-01T05:27:02;8.63;;;5.87;;
13415;SDS011;6779;50.150;8.680;2023-05-01T05:29:28;7.17;;;5.73;;
13415;SDS011;6779;50.150;8.680;2023-05-01T05:31:53;6.33;;;5.63;;
13415;SDS011;6779;50.150;8.680;2023-05-01T05:34:18;5.63;;;5.00;;
13415;SDS011;6779;50.150;8.680;2023-05-01T05:36:44;8.63;;;6.00;;
13415;SDS011;6779;50.150;8.680;2023-05-01T05:39:09;8.40;;;5.47;;
13415;SDS011;6779;50.150;8.680;2023-05-01T05:41:34;6.47;;;5.57;;
13415;SDS011;6779;50.150;8.680;2023-05-01T05:44:00;6.17;;;5.43;;
13415;SDS011;6779;50.150;8.680;2023-05-01T05:46:25;6.13;;;4.73;;
13415;SDS011;6779;50.150;8.680;2023-05-01T05:48:50;6.10;;;5.20;;
13415;SDS011;6779;50.150;8.680;2023-05-01T05:51:16;8.93;;;5.53;;
13415;SDS011;6779;50.150;8.680;2023-05-01T05:53:41;7.47;;;5.30;;
13415;SDS011;6779;50.150;8.680;2023-05-01T05:56:07;6.30;;;5.40;;
13415;SDS011;6779;50.150;8.680;2023-05-01T05:58:32;6.77;;;4.87;;
13415;SDS011;6779;50.150;8.680;2023-05-01T06:00:57;5.57;;;4.70;;
13415;SDS011;6779;50.150;8.680;2023-05-01T06:03:23;7.27;;;5.00;;
13415;SDS011;6779;50.150;8.680;2023-05-01T06:05:48;7.63;;;5.07;;
13415;SDS011;6779;50.150;8.680;2023-05-01T06:08:13;7.33;;;5.10;;
13415;SDS011;6779;50.150;8.680;2023-05-01T06:10:41;7.30;;;5.57;;
13415;SDS011;6779;50.150;8.680;2023-05-01T06:13:07;6.30;;;5.07;;
13415;SDS011;6779;50.150;8.680;2023-05-01T06:15:32;8.50;;;5.43;;
13415;SDS011;6779;50.150;8.680;2023-05-01T06:17:58;6.10;;;5.00;;
13415;SDS011;6779;50.150;8.680;2023-05-01T06:20:23;6.43;;;5.33;;
13415;SDS011;6779;50.150;8.680;2023-05-01T06:22:49;7.47;;;5.80;;
13415;SDS011;6779;50.150;8.680;2023-05-01T06:25:14;7.90;;;5.37;;
13415;SDS011;6779;50.150;8.680;2023-05-01T06:27:39;8.37;;;4.80;;
13415;SDS011;6779;50.150;8.680;2023-05-01T06:30:05;9.30;;;5.70;;
13415;SDS011;6779;50.150;8.680;2023-05-01T06:32:31;8.73;;;5.77;;
13415;SDS011;6779;50.150;8.680;2023-05-01T06:34:56;6.60;;;4.77;;
13415;SDS011;6779;50.150;8.680;2023-05-01T06:37:21;7.27;;;5.40;;
13415;SDS011;6779;50.150;8.680;2023-05-01T06:39:47;5.50;;;5.00;;
13415;SDS011;6779;50.150;8.680;2023-05-01T06:42:12;8.03;;;5.67;;
13415;SDS011;6779;50.150;8.680;2023-05-01T06:44:40;6.73;;;4.77;;
13415;SDS011;6779;50.150;8.680;2023-05-01T06:47:05;6.27;;;5.23;;
13415;SDS011;6779;50.150;8.680;2023-05-01T06:49:31;8.13;;;5.83;;
13415;SDS011;6779;50.150;8.680;2023-05-01T06:51:57;6.87;;;5.27;;
13415;SDS011;6779;50.150;8.680;2023-05-01T06:54:22;6.37;;;4.97;;
13415;SDS011;6779;50.150;8.680;2023-05-01T06:56:48;6.77;;;5.87;;
13415;SDS011;6779;50.150;8.680;2023-05-01T06:59:13;5.77;;;4.83;;
13415;SDS011;6779;50.150;8.680;2023-05-01T07:01:38;7.53;;;5.40;;
13415;SDS011;6779;50.150;8.680;2023-05-01T07:04:04;5.97;;;4.93;;
13415;SDS011;6779;50.150;8.680;2023-05-01T07:06:29;5.50;;;5.00;;
13415;SDS011;6779;50.150;8.680;2023-05-01T07:08:56;5.97;;;4.87;;
13415;SDS011;6779;50.150;8.680;2023-05-01T07:11:21;5.03;;;4.53;;
13415;SDS011;6779;50.150;8.680;2023-05-01T07:13:47;5.87;;;5.10;;
13415;SDS011;6779;50.150;8.680;2023-05-01T07:16:12;6.50;;;5.00;;
13415;SDS011;6779;50.150;8.680;2023-05-01T07:18:37;7.53;;;5.27;;
13415;SDS011;6779;50.150;8.680;2023-05-01T07:21:03;5.60;;;5.10;;
13415;SDS011;6779;50.150;8.680;2023-05-01T07:23:29;7.97;;;5.40;;
13415;SDS011;6779;50.150;8.680;2023-05-01T07:25:54;6.77;;;5.43;;
13415;SDS011;6779;50.150;8.680;2023-05-01T07:28:20;6.53;;;5.53;;
13415;SDS011;6779;50.150;8.680;2023-05-01T07:30:46;6.63;;;4.90;;
13415;SDS011;6779;50.150;8.680;2023-05-01T07:33:12;8.27;;;5.27;;
13415;SDS011;6779;50.150;8.680;2023-05-01T07:35:37;6.77;;;5.83;;
13415;SDS011;6779;50.150;8.680;2023-05-01T07:38:02;6.80;;;6.00;;
13415;SDS011;6779;50.150;8.680;2023-05-01T07:40:28;6.67;;;5.27;;
13415;SDS011;6779;50.150;8.680;2023-05-01T07:42:53;7.77;;;5.53;;
13415;SDS011;6779;50.150;8.680;2023-05-01T07:45:19;7.50;;;5.13;;
13415;SDS011;6779;50.150;8.680;2023-05-01T07:47:44;7.10;;;5.27;;
13415;SDS011;6779;50.150;8.680;2023-05-01T07:50:10;6.73;;;5.13;;
13415;SDS011;6779;50.150;8.680;2023-05-01T07:52:35;6.90;;;5.40;;
13415;SDS011;6779;50.150;8.680;2023-05-01T07:55:01;7.13;;;5.70;;
13415;SDS011;6779;50.150;8.680;2023-05-01T07:57:26;6.37;;;5.00;;
13415;SDS011;6779;50.150;8.680;2023-05-01T07:59:53;7.17;;;5.40;;
13415;SDS011;6779;50.150;8.680;2023-05-01T08:02:19;6.60;;;5.10;;
13415;SDS011;6779;50.150;8.680;2023-05-01T08:04:44;5.23;;;4.73;;
13415;SDS011;6779;50.150;8.680;2023-05-01T08:07:12;7.10;;;5.43;;
13415;SDS011;6779;50.150;8.680;2023-05-01T08:09:37;6.07;;;5.47;;
13415;SDS011;6779;50.150;8.680;2023-05-01T08:12:02;5.87;;;5.00;;
13415;SDS011;6779;50.150;8.680;2023-05-01T08:14:28;7.10;;;5.70;;
13415;SDS011;6779;50.150;8.680;2023-05-01T08:16:53;6.37;;;5.20;;
13415;SDS011;6779;50.150;8.680;2023-05-01T08:19:19;7.70;;;5.13;;
13415;SDS011;6779;50.150;8.680;2023-05-01T08:21:44;5.97;;;5.00;;
13415;SDS011;6779;50.150;8.680;2023-05-01T08:24:10;5.90;;;4.97;;
13415;SDS011;6779;50.150;8.680;2023-05-01T08:26:35;6.80;;;5.27;;
13415;SDS011;6779;50.150;8.680;2023-05-01T08:29:01;7.67;;;5.20;;
13415;SDS011;6779;50.150;8.680;2023-05-01T08:31:26;9.07;;;5.67;;
13415;SDS011;6779;50.150;8.680;2023-05-01T08:33:52;7.83;;;5.30;;
13415;SDS011;6779;50.150;8.680;2023-05-01T08:36:17;6.60;;;5.13;;
13415;SDS011;6779;50.150;8.680;2023-05-01T08:38:42;10.20;;;5.87;;
13415;SDS011;6779;50.150;8.680;2023-05-01T08:41:08;6.33;;;5.30;;
13415;SDS011;6779;50.150;8.680;2023-05-01T08:43:34;5.77;;;5.03;;
13415;SDS011;6779;50.150;8.680;2023-05-01T08:45:59;7.70;;;5.03;;
13415;SDS011;6779;50.150;8.680;2023-05-01T08:48:25;6.30;;;5.23;;
13415;SDS011;6779;50.150;8.680;2023-05-01T08:50:52;7.20;;;5.17;;
13415;SDS011;6779;50.150;8.680;2023-05-01T08:53:20;8.40;;;5.70;;
13415;SDS011;6779;50.150;8.680;2023-05-01T08:55:46;8.13;;;6.43;;
13415;SDS011;6779;50.150;8.680;2023-05-01T08:58:13;8.37;;;6.00;;
13415;SDS011;6779;50.150;8.680;2023-05-01T09:00:39;8.87;;;5.80;;
13415;SDS011;6779;50.150;8.680;2023-05-01T09:03:06;6.50;;;5.33;;
13415;SDS011;6779;50.150;8.680;2023-05-01T09:05:32;7.33;;;5.77;;
13415;SDS011;6779;50.150;8.680;2023-05-01T09:07:58;9.00;;;5.70;;
13415;SDS011;6779;50.150;8.680;2023-05-01T09:10:23;8.53;;;5.23;;
13415;SDS011;6779;50.150;8.680;2023-05-01T09:12:53;7.77;;;5.20;;
13415;SDS011;6779;50.150;8.680;2023-05-01T09:15:21;6.53;;;5.40;;
13415;SDS011;6779;50.150;8.680;2023-05-01T09:17:46;6.40;;;5.50;;
13415;SDS011;6779;50.150;8.680;2023-05-01T09:20:12;6.53;;;5.50;;
13415;SDS011;6779;50.150;8.680;2023-05-01T09:22:37;9.67;;;5.60;;
13415;SDS011;6779;50.150;8.680;2023-05-01T09:25:03;6.40;;;5.20;;
13415;SDS011;6779;50.150;8.680;2023-05-01T09:27:32;6.97;;;5.50;;
13415;SDS011;6779;50.150;8.680;2023-05-01T09:29:59;8.93;;;5.80;;
13415;SDS011;6779;50.150;8.680;2023-05-01T09:32:25;6.17;;;5.20;;
13415;SDS011;6779;50.150;8.680;2023-05-01T09:34:54;9.03;;;5.60;;
13415;SDS011;6779;50.150;8.680;2023-05-01T09:40:02;7.00;;;5.20;;
13415;SDS011;6779;50.150;8.680;2023-05-01T09:42:32;6.77;;;5.27;;
13415;SDS011;6779;50.150;8.680;2023-05-01T09:44:58;6.63;;;5.90;;
13415;SDS011;6779;50.150;8.680;2023-05-01T09:47:24;6.60;;;5.40;;
13415;SDS011;6779;50.150;8.680;2023-05-01T09:49:53;8.73;;;5.30;;
13415;SDS011;6779;50.150;8.680;2023-05-01T09:52:19;6.07;;;5.47;;
13415;SDS011;6779;50.150;8.680;2023-05-01T09:54:44;7.63;;;6.13;;
13415;SDS011;6779;50.150;8.680;2023-05-01T09:57:10;7.20;;;5.57;;
13415;SDS011;6779;50.150;8.680;2023-05-01T09:59:35;6.43;;;5.13;;
13415;SDS011;6779;50.150;8.680;2023-05-01T10:02:00;5.70;;;4.90;;
13415;SDS011;6779;50.150;8.680;2023-05-01T10:04:32;5.70;;;5.10;;
13415;SDS011;6779;50.150;8.680;2023-05-01T10:07:11;7.03;;;5.63;;
13415;SDS011;6779;50.150;8.680;2023-05-01T10:09:37;8.50;;;5.10;;
13415;SDS011;6779;50.150;8.680;2023-05-01T10:12:03;6.67;;;5.30;;
13415;SDS011;6779;50.150;8.680;2023-05-01T10:14:28;7.60;;;5.40;;
13415;SDS011;6779;50.150;8.680;2023-05-01T10:16:57;6.87;;;5.17;;
13415;SDS011;6779;50.150;8.680;2023-05-01T10:19:23;7.10;;;5.77;;
13415;SDS011;6779;50.150;8.680;2023-05-01T10:21:48;8.03;;;6.00;;
13415;SDS011;6779;50.150;8.680;2023-05-01T10:24:14;6.33;;;5.50;;
13415;SDS011;6779;50.150;8.680;2023-05-01T10:26:41;6.67;;;5.50;;
13415;SDS011;6779;50.150;8.680;2023-05-01T10:29:07;7.33;;;5.70;;
13415;SDS011;6779;50.150;8.680;2023-05-01T10:31:32;7.50;;;5.63;;
13415;SDS011;6779;50.150;8.680;2023-05-01T10:33:58;6.43;;;5.50;;
13415;SDS011;6779;50.150;8.680;2023-05-01T10:36:30;7.50;;;6.10;;
13415;SDS011;6779;50.150;8.680;2023-05-01T10:38:59;6.77;;;5.90;;
13415;SDS011;6779;50.150;8.680;2023-05-01T10:44:25;6.80;;;5.27;;
13415;SDS011;6779;50.150;8.680;2023-05-01T10:46:51;6.87;;;5.63;;
13415;SDS011;6779;50.150;8.680;2023-05-01T10:49:16;7.43;;;5.33;;
13415;SDS011;6779;50.150;8.680;2023-05-01T10:54:38;5.90;;;4.57;;
13415;SDS011;6779;50.150;8.680;2023-05-01T10:57:04;7.20;;;4.70;;
13415;SDS011;6779;50.150;8.680;2023-05-01T11:00:09;6.03;;;4.77;;
13415;SDS011;6779;50.150;8.680;2023-05-01T11:02:25;6.03;;;4.77;;
13415;SDS011;6779;50.150;8.680;2023-05-01T11:04:51;4.67;;;4.20;;
13415;SDS011;6779;50.150;8.680;2023-05-01T11:07:18;6.17;;;4.77;;
13415;SDS011;6779;50.150;8.680;2023-05-01T11:17:50;5.15;;;4.30;;
13415;SDS011;6779;50.150;8.680;2023-05-01T11:22:51;4.90;;;4.03;;
13415;SDS011;6779;50.150;8.680;2023-05-01T11:25:27;5.95;;;4.30;;
13415;SDS011;6779;50.150;8.680;2023-05-01T11:27:55;4.43;;;4.03;;
13415;SDS011;6779;50.150;8.680;2023-05-01T11:30:22;4.40;;;3.95;;
13415;SDS011;6779;50.150;8.680;2023-05-01T11:32:48;4.65;;;4.22;;
13415;SDS011;6779;50.150;8.680;2023-05-01T11:35:18;4.50;;;4.10;;
13415;SDS011;6779;50.150;8.680;2023-05-01T11:37:44;5.75;;;4.47;;
13415;SDS011;6779;50.150;8.680;2023-05-01T11:40:27;6.18;;;4.90;;
13415;SDS011;6779;50.150;8.680;2023-05-01T11:43:00;4.47;;;4.05;;
13415;SDS011;6779;50.150;8.680;2023-05-01T11:45:29;4.73;;;4.33;;
13415;SDS011;6779;50.150;8.680;2023-05-01T11:47:55;5.97;;;4.57;;
13415;SDS011;6779;50.150;8.680;2023-05-01T11:50:20;5.33;;;4.23;;
13415;SDS011;6779;50.150;8.680;2023-05-01T11:52:46;4.60;;;4.17;;
13415;SDS011;6779;50.150;8.680;2023-05-01T11:55:19;4.97;;;4.57;;
13415;SDS011;6779;50.150;8.680;2023-05-01T11:57:45;4.83;;;4.43;;
13415;SDS011;6779;50.150;8.680;2023-05-01T12:00:12;5.33;;;4.50;;
13415;SDS011;6779;50.150;8.680;2023-05-01T12:02:38;8.30;;;5.17;;
13415;SDS011;6779;50.150;8.680;2023-05-01T12:05:16;5.40;;;4.30;;
13415;SDS011;6779;50.150;8.680;2023-05-01T12:07:42;5.20;;;4.53;;
13415;SDS011;6779;50.150;8.680;2023-05-01T12:10:07;8.27;;;5.13;;
13415;SDS011;6779;50.150;8.680;2023-05-01T12:12:33;5.57;;;4.97;;
13415;SDS011;6779;50.150;8.680;2023-05-01T12:14:59;5.67;;;4.60;;
13415;SDS011;6779;50.150;8.680;2023-05-01T12:17:24;4.77;;;4.37;;
13415;SDS011;6779;50.150;8.680;2023-05-01T12:19:51;6.13;;;4.73;;
13415;SDS011;6779;50.150;8.680;2023-05-01T12:22:18;5.23;;;4.77;;
13415;SDS011;6779;50.150;8.680;2023-05-01T12:24:53;5.57;;;5.03;;
13415;SDS011;6779;50.150;8.680;2023-05-01T12:27:18;5.23;;;4.67;;
13415;SDS011;6779;50.150;8.680;2023-05-01T12:29:44;5.40;;;4.70;;
13415;SDS011;6779;50.150;8.680;2023-05-01T12:32:11;5.23;;;4.40;;
13415;SDS011;6779;50.150;8.680;2023-05-01T12:34:36;5.13;;;4.33;;
13415;SDS011;6779;50.150;8.680;2023-05-01T12:37:02;6.50;;;4.47;;
13415;SDS011;6779;50.150;8.680;2023-05-01T12:39:34;5.37;;;4.30;;
13415;SDS011;6779;50.150;8.680;2023-05-01T12:42:02;5.57;;;4.13;;
13415;SDS011;6779;50.150;8.680;2023-05-01T12:44:27;4.43;;;4.07;;
13415;SDS011;6779;50.150;8.680;2023-05-01T12:46:58;4.23;;;3.93;;
13415;SDS011;6779;50.150;8.680;2023-05-01T12:49:25;7.53;;;4.70;;
13415;SDS011;6779;50.150;8.680;2023-05-01T12:51:51;5.87;;;4.77;;
13415;SDS011;6779;50.150;8.680;2023-05-01T12:54:19;5.20;;;4.00;;
13415;SDS011;6779;50.150;8.680;2023-05-01T12:56:45;4.60;;;4.10;;
13415;SDS011;6779;50.150;8.680;2023-05-01T12:59:20;5.37;;;4.00;;
13415;SDS011;6779;50.150;8.680;2023-05-01T13:01:47;5.20;;;3.70;;
13415;SDS011;6779;50.150;8.680;2023-05-01T13:04:20;4.37;;;3.97;;
13415;SDS011;6779;50.150;8.680;2023-05-01T13:06:46;5.23;;;4.03;;
13415;SDS011;6779;50.150;8.680;2023-05-01T13:09:12;4.27;;;3.80;;
13415;SDS011;6779;50.150;8.680;2023-05-01T13:11:39;4.40;;;4.00;;
13415;SDS011;6779;50.150;8.680;2023-05-01T13:14:08;5.93;;;3.93;;
13415;SDS011;6779;50.150;8.680;2023-05-01T13:16:33;5.27;;;4.50;;
13415;SDS011;6779;50.150;8.680;2023-05-01T13:18:59;5.23;;;4.30;;
13415;SDS011;6779;50.150;8.680;2023-05-01T13:21:24;5.47;;;4.50;;
13415;SDS011;6779;50.150;8.680;2023-05-01T13:23:52;5.40;;;4.30;;
13415;SDS011;6779;50.150;8.680;2023-05-01T13:26:23;3.70;;;3.40;;
13415;SDS011;6779;50.150;8.680;2023-05-01T13:28:49;4.07;;;3.67;;
13415;SDS011;6779;50.150;8.680;2023-05-01T13:31:15;3.90;;;3.60;;
13415;SDS011;6779;50.150;8.680;2023-05-01T13:33:41;5.33;;;4.37;;
13415;SDS011;6779;50.150;8.680;2023-05-01T13:36:08;4.70;;;4.23;;
13415;SDS011;6779;50.150;8.680;2023-05-01T13:38:40;4.60;;;3.50;;
13415;SDS011;6779;50.150;8.680;2023-05-01T13:41:17;4.70;;;4.27;;
13415;SDS011;6779;50.150;8.680;2023-05-01T13:43:44;6.03;;;3.80;;
13415;SDS011;6779;50.150;8.680;2023-05-01T13:46:10;5.10;;;4.00;;
13415;SDS011;6779;50.150;8.680;2023-05-01T13:48:40;5.53;;;4.33;;
13415;SDS011;6779;50.150;8.680;2023-05-01T13:51:06;4.27;;;3.87;;
13415;SDS011;6779;50.150;8.680;2023-05-01T13:53:32;4.30;;;3.90;;
13415;SDS011;6779;50.150;8.680;2023-05-01T13:55:58;4.73;;;3.77;;
13415;SDS011;6779;50.150;8.680;2023-05-01T13:58:23;4.23;;;3.83;;
13415;SDS011;6779;50.150;8.680;2023-05-01T14:00:48;6.00;;;4.50;;
13415;SDS011;6779;50.150;8.680;2023-05-01T14:03:14;6.80;;;3.80;;
13415;SDS011;6779;50.150;8.680;2023-05-01T14:05:39;6.13;;;3.73;;
13415;SDS011;6779;50.150;8.680;2023-05-01T14:08:07;4.43;;;4.03;;
13415;SDS011;6779;50.150;8.680;2023-05-01T14:10:32;5.37;;;4.53;;
13415;SDS011;6779;50.150;8.680;2023-05-01T14:12:58;6.10;;;3.90;;
13415;SDS011;6779;50.150;8.680;2023-05-01T14:15:23;4.53;;;4.07;;
13415;SDS011;6779;50.150;8.680;2023-05-01T14:17:49;4.30;;;3.50;;
13415;SDS011;6779;50.150;8.680;2023-05-01T14:20:14;4.50;;;4.00;;
13415;SDS011;6779;50.150;8.680;2023-05-01T14:22:41;3.83;;;3.50;;
13415;SDS011;6779;50.150;8.680;2023-05-01T14:25:07;4.53;;;3.50;;
13415;SDS011;6779;50.150;8.680;2023-05-01T14:27:50;4.17;;;3.77;;
13415;SDS011;6779;50.150;8.680;2023-05-01T14:30:23;6.37;;;3.80;;
13415;SDS011;6779;50.150;8.680;2023-05-01T14:33:01;4.80;;;4.20;;
13415;SDS011;6779;50.150;8.680;2023-05-01T14:35:27;6.30;;;4.93;;
13415;SDS011;6779;50.150;8.680;2023-05-01T14:37:53;4.57;;;4.17;;
13415;SDS011;6779;50.150;8.680;2023-05-01T14:40:21;5.90;;;4.50;;
13415;SDS011;6779;50.150;8.680;2023-05-01T14:42:51;4.80;;;4.13;;
13415;SDS011;6779;50.150;8.680;2023-05-01T14:45:17;4.70;;;3.87;;
13415;SDS011;6779;50.150;8.680;2023-05-01T14:47:43;4.90;;;4.40;;
13415;SDS011;6779;50.150;8.680;2023-05-01T14:50:20;6.27;;;4.20;;
13415;SDS011;6779;50.150;8.680;2023-05-01T14:52:50;4.73;;;4.20;;
13415;SDS011;6779;50.150;8.680;2023-05-01T14:55:17;4.97;;;4.50;;
13415;SDS011;6779;50.150;8.680;2023-05-01T14:57:43;5.37;;;4.00;;
13415;SDS011;6779;50.150;8.680;2023-05-01T15:00:09;4.97;;;4.47;;
13415;SDS011;6779;50.150;8.680;2023-05-01T15:02:34;3.90;;;3.50;;
13415;SDS011;6779;50.150;8.680;2023-05-01T15:05:00;4.70;;;4.30;;
13415;SDS011;6779;50.150;8.680;2023-05-01T15:07:25;4.07;;;3.67;;
13415;SDS011;6779;50.150;8.680;2023-05-01T15:09:50;4.30;;;3.90;;
13415;SDS011;6779;50.150;8.680;2023-05-01T15:12:18;6.43;;;4.43;;
13415;SDS011;6779;50.150;8.680;2023-05-01T15:14:43;4.10;;;3.63;;
13415;SDS011;6779;50.150;8.680;2023-05-01T15:17:08;4.37;;;3.97;;
13415;SDS011;6779;50.150;8.680;2023-05-01T15:19:34;4.60;;;3.87;;
13415;SDS011;6779;50.150;8.680;2023-05-01T15:21:59;5.17;;;3.70;;
13415;SDS011;6779;50.150;8.680;2023-05-01T15:24:27;4.07;;;3.67;;
13415;SDS011;6779;50.150;8.680;2023-05-01T15:26:53;4.43;;;3.93;;